Time;durP1;ratioP1;P1;durP2;ratioP2;P2;SDS_P1;SDS_P2;PMS_P1;PMS_P2;Temp;Humidity;BMP_temperature;BMP_pressure;BME280_temperature;BME280_humidity;BME280_pressure;Samples;Min_cycle;Max_cycle;Signal;HPM_P1;HPM_P2
2022/05/21 00:05:29;;;;;;;5.72;3.77;;;;;;;22.06;43.63;99373.83;2035387;94;25875;-81
2022/05/21 00:09:02;;;;;;;3.65;3.35;;;;;;;22.05;43.60;99372.11;2037895;93;25939;-79
2022/05/21 00:12:48;;;;;;;7.40;4.12;;;;;;;22.02;43.70;99365.12;2035245;95;25863;-79
2022/05/21 00:16:35;;;;;;;10.32;3.33;;;;;;;22.04;43.78;99363.72;2034655;95;25770;-80
2022/05/21 00:20:08;;;;;;;9.33;4.15;;;;;;;22.04;43.89;99361.07;2016208;95;25915;-79
2022/05/21 00:23:49;;;;;;;8.48;3.22;;;;;;;22.01;44.11;99363.41;2025986;94;25846;-80
2022/05/21 00:27:22;;;;;;;6.65;3.05;;;;;;;21.97;44.39;99356.50;2012986;96;25747;-79
2022/05/21 00:31:01;;;;;;;7.90;3.98;;;;;;;21.93;44.77;99340.27;2032733;92;25972;-80
2022/05/21 00:34:29;;;;;;;8.05;3.55;;;;;;;21.89;45.33;99342.19;2116602;85;25875;-78
2022/05/21 00:38:27;;;;;;;6.03;3.55;;;;;;;21.85;45.80;99331.30;2280728;85;26157;-79
2022/05/21 00:41:50;;;;;;;4.20;3.62;;;;;;;21.81;46.21;99314.25;2213534;87;25792;-80
2022/05/21 00:45:25;;;;;;;6.45;3.95;;;;;;;21.79;46.54;99317.41;2214474;87;25710;-79
2022/05/21 00:49:06;;;;;;;15.32;4.30;;;;;;;21.75;47.15;99372.84;2208022;87;25711;-81
2022/05/21 00:52:41;;;;;;;10.80;4.60;;;;;;;21.64;47.85;99445.73;2217839;87;25776;-81
2022/05/21 00:56:24;;;;;;;9.93;3.85;;;;;;;21.52;48.93;99450.14;2210878;86;25638;-81
2022/05/21 01:00:20;;;;;;;10.23;3.75;;;;;;;21.41;49.59;99461.14;2252400;86;25692;-81
2022/05/21 01:03:42;;;;;;;8.93;3.80;;;;;;;21.34;50.32;99442.39;2249773;86;25728;-81
2022/05/21 01:07:14;;;;;;;7.92;3.15;;;;;;;21.28;50.74;99421.37;2260392;86;25864;-81
2022/05/21 01:10:39;;;;;;;10.45;4.15;;;;;;;21.25;51.08;99399.41;2255791;86;26263;-80
2022/05/21 01:14:20;;;;;;;6.67;3.72;;;;;;;21.27;51.61;99363.12;2252477;86;25752;-82
2022/05/21 01:18:00;;;;;;;6.73;3.63;;;;;;;21.25;51.74;99340.63;2232304;87;25701;-81
2022/05/21 01:21:44;;;;;;;7.47;3.72;;;;;;;21.23;52.01;99323.94;2259935;82;25712;-82
2022/05/21 01:25:15;;;;;;;4.75;3.65;;;;;;;21.21;52.47;99288.66;2237657;86;25864;-81
2022/05/21 01:29:06;;;;;;;9.50;3.70;;;;;;;21.17;52.80;99257.89;2240746;86;25835;-80
2022/05/21 01:32:54;;;;;;;;;;;;;;;21.12;53.19;99300.91;2250532;85;25744;-79
2022/05/21 01:36:38;;;;;;;5.75;3.67;;;;;;;21.06;53.54;99280.83;2206498;86;25715;-82
2022/05/21 01:40:42;;;;;;;7.65;4.10;;;;;;;20.99;53.42;99272.67;2238014;87;25863;-81
2022/05/21 01:44:53;;;;;;;;;;;;;;;;;;;;;
2022/05/21 01:48:21;;;;;;;4.30;3.65;;;;;;;20.94;54.29;99262.72;2237190;87;25491;-80
2022/05/21 01:52:05;;;;;;;;;;;;;;;;;;;;;
2022/05/21 01:55:30;;;;;;;8.03;3.80;;;;;;;20.90;54.72;99224.88;2208326;88;25735;-79
2022/05/21 01:58:55;;;;;;;4.78;4.22;;;;;;;20.89;55.08;99199.75;2208193;88;25804;-79
2022/05/21 02:02:33;;;;;;;4.97;4.30;;;;;;;20.82;55.41;99190.30;2207124;88;25694;-80
2022/05/21 02:06:16;;;;;;;6.53;4.00;;;;;;;20.78;55.59;99177.64;2209861;88;25915;-81
2022/05/21 02:09:50;;;;;;;6.12;4.35;;;;;;;20.73;55.83;99168.55;2210261;87;25866;-81
2022/05/21 02:13:33;;;;;;;5.75;4.58;;;;;;;20.71;56.00;99143.90;2189688;87;26139;-80
2022/05/21 02:20:55;;;;;;;5.70;4.50;;;;;;;20.72;56.35;99148.73;2151414;90;26675;-81
2022/05/21 02:24:44;;;;;;;5.72;4.92;;;;;;;20.68;56.54;99128.12;2182227;88;25774;-80
2022/05/21 02:28:26;;;;;;;;;;;;;;;20.63;56.63;99124.80;2214592;88;26348;-80
2022/05/21 02:32:18;;;;;;;9.63;4.75;;;;;;;20.62;56.98;99119.55;2238010;85;25807;-81
2022/05/21 02:40:20;;;;;;;5.78;4.95;;;;;;;20.55;57.18;99128.64;2258268;86;25609;-80
2022/05/21 02:43:57;;;;;;;7.45;5.45;;;;;;;20.52;57.36;99123.02;2255303;85;25688;-81
2022/05/21 02:47:20;;;;;;;7.95;5.33;;;;;;;20.51;57.48;99139.81;2275875;86;25708;-81
2022/05/21 02:51:15;;;;;;;10.78;5.50;;;;;;;20.48;57.65;99163.71;2253359;85;25837;-81
2022/05/21 02:54:46;;;;;;;5.83;5.35;;;;;;;20.47;57.78;99164.64;2276256;85;25178;-81
2022/05/21 02:58:19;;;;;;;8.60;5.70;;;;;;;20.45;57.80;99149.26;2276438;86;25745;-81
2022/05/21 03:01:40;;;;;;;7.22;5.40;;;;;;;20.45;58.02;99149.26;2257092;86;25770;-81
2022/05/21 03:05:03;;;;;;;9.13;5.62;;;;;;;20.41;58.05;99138.38;2255795;86;26334;-81
2022/05/21 03:12:13;;;;;;;7.62;5.00;;;;;;;20.41;58.39;99145.00;2239371;86;25684;-81
2022/05/21 03:15:38;;;;;;;7.35;6.05;;;;;;;20.37;58.59;99145.58;2256148;85;25875;-81
2022/05/21 03:18:59;;;;;;;5.97;5.47;;;;;;;20.35;58.56;99139.92;2276921;86;25917;-79
2022/05/21 03:22:20;;;;;;;6.80;5.70;;;;;;;20.34;58.82;99127.16;2276175;86;25664;-80
2022/05/21 03:25:41;;;;;;;10.38;6.03;;;;;;;20.37;58.94;99129.69;2275934;85;25661;-82
2022/05/21 03:29:05;;;;;;;7.00;6.30;;;;;;;20.38;59.05;99125.26;2276184;86;26727;-81
2022/05/21 03:32:30;;;;;;;7.05;5.60;;;;;;;20.37;59.13;99110.31;2257619;85;25791;-81
2022/05/21 03:35:51;;;;;;;7.37;5.90;;;;;;;20.35;59.28;99116.10;2281307;86;25674;-81
2022/05/21 03:39:12;;;;;;;8.88;5.85;;;;;;;20.30;59.41;99118.93;2276079;85;26441;-81
2022/05/21 03:42:32;;;;;;;6.62;5.90;;;;;;;20.29;59.44;99110.13;2275898;85;32090;-81
2022/05/21 03:45:53;;;;;;;9.93;5.83;;;;;;;20.33;59.62;99100.76;2276636;85;25790;-81
2022/05/21 03:49:16;;;;;;;5.80;5.33;;;;;;;20.32;59.72;99107.84;2276290;85;25742;-81
2022/05/21 03:52:38;;;;;;;8.05;5.95;;;;;;;20.32;59.79;99118.86;2275913;86;25640;-81
2022/05/21 03:55:59;;;;;;;6.12;5.55;;;;;;;20.34;59.90;99132.91;2276029;85;25743;-80
2022/05/21 03:59:40;;;;;;;5.75;5.25;;;;;;;20.29;60.05;99129.98;2275580;86;25750;-81
2022/05/21 04:03:06;;;;;;;5.65;5.15;;;;;;;20.27;60.10;99131.80;2276474;86;25580;-80
2022/05/21 04:06:27;;;;;;;8.30;5.47;;;;;;;20.23;60.14;99130.20;2275938;85;26429;-81
2022/05/21 04:09:48;;;;;;;6.78;5.42;;;;;;;20.25;60.21;99089.14;2275579;86;25680;-80
2022/05/21 04:13:09;;;;;;;5.72;5.33;;;;;;;20.30;60.29;99125.55;2276869;86;25645;-81
2022/05/21 04:16:31;;;;;;;6.85;5.22;;;;;;;20.35;60.17;99104.19;2270904;86;25741;-81
2022/05/21 04:19:52;;;;;;;7.62;6.00;;;;;;;20.45;60.31;99113.52;2291437;83;25934;-81
2022/05/21 04:23:13;;;;;;;7.50;5.45;;;;;;;20.48;60.29;99107.66;2309940;84;25592;-81
2022/05/21 04:27:06;;;;;;;6.12;4.45;;;;;;;20.54;60.11;99117.20;2313051;84;26759;-79
2022/05/21 04:30:55;;;;;;;5.28;4.78;;;;;;;20.62;59.95;99116.47;2304578;83;25923;-80
2022/05/21 04:34:37;;;;;;;6.25;4.53;;;;;;;20.75;59.43;99123.46;2301458;84;25704;-80
2022/05/21 04:38:08;;;;;;;7.97;5.30;;;;;;;20.86;59.15;99127.05;2275101;85;25833;-79
2022/05/21 04:41:43;;;;;;;6.85;5.30;;;;;;;20.92;58.85;99133.41;2268869;86;26409;-80
2022/05/21 04:45:09;;;;;;;5.70;3.80;;;;;;;21.02;58.56;99124.17;2270610;85;25724;-80
2022/05/21 04:48:31;;;;;;;4.70;3.98;;;;;;;21.09;58.36;99128.78;2265761;86;25762;-78
2022/05/21 04:51:52;;;;;;;4.92;4.40;;;;;;;21.17;58.10;99124.05;2269498;86;25937;-79
2022/05/21 04:55:30;;;;;;;4.72;4.30;;;;;;;21.33;57.78;99125.61;2270711;86;25890;-80
2022/05/21 04:59:37;;;;;;;;;;;;;;;;;;;;;
2022/05/21 05:03:19;;;;;;;5.40;4.65;;;;;;;21.44;57.34;99122.11;2286050;84;25775;-81
2022/05/21 05:07:22;;;;;;;;;;;;;;;;;;;;;
2022/05/21 05:11:06;;;;;;;;;;;;;;;;;;;;;
2022/05/21 05:14:39;;;;;;;5.83;3.77;;;;;;;21.42;57.36;99117.32;2295262;84;25683;-80
2022/05/21 05:18:23;;;;;;;4.58;4.17;;;;;;;21.38;57.35;99121.03;2300659;84;25730;-80
2022/05/21 05:22:14;;;;;;;;;;;;;;;;;;;;;
2022/05/21 05:25:47;;;;;;;6.55;5.80;;;;;;;21.16;57.81;99127.17;2298456;84;25675;-80
2022/05/21 05:29:30;;;;;;;5.45;4.95;;;;;;;21.04;58.03;99132.94;2299976;84;26379;-79
2022/05/21 05:33:09;;;;;;;;;;;;;;;;;;;;;
2022/05/21 05:36:35;;;;;;;4.72;4.33;;;;;;;21.03;58.32;99131.23;2321793;84;25633;-81
2022/05/21 05:40:03;;;;;;;5.53;5.05;;;;;;;21.03;58.29;99132.55;2330577;84;25668;-82
2022/05/21 05:43:24;;;;;;;4.92;4.53;;;;;;;20.98;58.37;99129.20;2333304;83;26546;-82
2022/05/21 05:47:02;;;;;;;4.28;3.87;;;;;;;21.06;58.32;99131.11;2330417;84;25580;-80
2022/05/21 05:50:42;;;;;;;4.97;3.95;;;;;;;21.15;58.12;99128.54;2329407;83;25667;-80
2022/05/21 05:54:28;;;;;;;5.22;4.00;;;;;;;21.27;57.80;99124.09;2317399;83;25764;-81
2022/05/21 05:59:48;;;;;;;4.78;4.37;;;;;;;21.33;57.63;99125.61;2322470;83;25729;-81
2022/05/21 06:01:46;;;;;;;12.45;4.37;;;;;;;21.34;57.68;99131.33;2326110;84;25859;-80
2022/05/21 06:05:09;;;;;;;8.13;4.75;;;;;;;21.25;57.87;99130.36;2313821;83;25758;-82
2022/05/21 06:08:56;;;;;;;4.22;3.92;;;;;;;21.21;57.99;99123.00;2210524;87;26403;-81
2022/05/21 06:12:15;;;;;;;4.17;3.60;;;;;;;21.32;57.96;99131.84;2224320;87;26314;-80
2022/05/21 06:15:43;;;;;;;3.35;3.08;;;;;;;21.37;57.85;99138.73;2188857;87;25429;-81
2022/05/21 06:19:19;;;;;;;3.52;3.22;;;;;;;21.51;57.57;99133.33;2197016;88;25801;-80
2022/05/21 06:23:09;;;;;;;4.35;3.50;;;;;;;21.64;57.38;99127.92;2166937;90;25770;-81
2022/05/21 06:26:53;;;;;;;4.45;2.80;;;;;;;21.63;57.34;99134.13;2168005;90;25856;-81
2022/05/21 06:30:47;;;;;;;;;;;;;;;;;;;;;
2022/05/21 06:34:09;;;;;;;3.58;3.33;;;;;;;21.72;57.18;99127.59;2154160;90;25949;-81
2022/05/21 06:37:48;;;;;;;3.08;2.80;;;;;;;21.68;57.16;99126.86;2127435;92;25818;-81
2022/05/21 06:41:31;;;;;;;3.35;2.67;;;;;;;21.68;57.26;99119.76;2149532;90;25791;-80
2022/05/21 06:45:28;;;;;;;2.83;2.20;;;;;;;21.73;57.15;99143.89;2170995;90;26614;-81
2022/05/21 06:49:00;;;;;;;1.92;1.82;;;;;;;21.92;56.71;99150.16;2174613;89;25813;-81
2022/05/21 06:52:42;;;;;;;5.05;2.20;;;;;;;22.31;56.28;99171.52;2155760;90;25714;-83
2022/05/21 06:56:45;;;;;;;;;;;;;;;;;;;;;
2022/05/21 07:00:21;;;;;;;5.35;2.08;;;;;;;23.54;54.55;99185.80;2110070;91;25819;-80
2022/05/21 07:04:05;;;;;;;;;;;;;;;;;;;;;
2022/05/21 07:08:12;;;;;;;;;;;;;;;;;;;;;
2022/05/21 07:11:07;;;;;;;3.37;1.00;;;;;;;24.98;50.57;99207.75;2097335;91;25773;-77
2022/05/21 07:14:38;;;;;;;3.42;1.10;;;;;;;25.26;49.64;99220.45;2095040;92;26160;-77
2022/05/21 07:18:12;;;;;;;1.20;1.00;;;;;;;25.30;48.57;99230.48;2081224;92;25810;-79
2022/05/21 07:21:48;;;;;;;7.37;0.82;;;;;;;25.13;47.86;99227.40;2076576;93;32523;-81
2022/05/21 07:25:24;;;;;;;1.27;0.60;;;;;;;24.90;47.68;99236.13;2007316;96;25880;-79
2022/05/21 07:29:07;;;;;;;3.33;0.80;;;;;;;24.64;47.57;99264.19;2053537;94;25746;-80
2022/05/21 07:32:41;;;;;;;6.28;0.88;;;;;;;24.51;47.26;99247.11;2066021;94;26576;-80
2022/05/21 07:36:19;;;;;;;1.27;1.00;;;;;;;24.37;47.43;99276.23;2060575;94;25962;-79
2022/05/21 07:39:49;;;;;;;5.83;0.60;;;;;;;24.23;47.45;99277.78;2063983;94;25789;-81
2022/05/21 07:43:27;;;;;;;8.20;1.30;;;;;;;24.11;47.37;99285.52;2075974;92;25857;-80
2022/05/21 07:46:56;;;;;;;1.02;0.42;;;;;;;24.00;47.20;99290.05;2077701;92;25886;-81
2022/05/21 07:50:30;;;;;;;11.83;0.60;;;;;;;23.90;47.04;99302.08;2088027;92;25805;-81
2022/05/21 07:54:05;;;;;;;0.50;0.33;;;;;;;23.73;46.91;99304.22;2090131;92;25826;-80
2022/05/21 07:57:45;;;;;;;5.12;0.57;;;;;;;23.58;46.75;99304.42;2177375;88;25761;-80
2022/05/21 08:01:32;;;;;;;1.27;0.35;;;;;;;23.44;46.53;99318.37;2196521;89;26423;-81
2022/05/21 08:05:08;;;;;;;1.47;0.40;;;;;;;23.32;46.48;99316.26;2208894;88;25738;-80
2022/05/21 08:08:54;;;;;;;2.92;0.30;;;;;;;23.18;46.41;99312.04;2198809;88;25727;-80
2022/05/21 08:12:47;;;;;;;;;;;;;;;;;;;;;
2022/05/21 08:16:52;;;;;;;8.25;0.40;;;;;;;22.77;46.14;99323.54;2203010;88;25853;-80
2022/05/21 08:20:59;;;;;;;;;;;;;;;;;;;;;
2022/05/21 08:29:00;;;;;;;2.97;0.27;;;;;;;22.72;46.45;99328.20;2016057;96;26674;-81
2022/05/21 08:32:51;;;;;;;8.18;0.40;;;;;;;22.83;46.11;99341.88;2016975;95;26219;-82
2022/05/21 08:36:30;;;;;;;3.05;0.30;;;;;;;22.79;45.82;99351.39;2020959;95;26526;-82
2022/05/21 08:40:19;;;;;;;2.83;0.30;;;;;;;22.73;45.61;99351.17;2029715;94;25811;-81
2022/05/21 08:44:36;;;;;;;3.37;1.02;;;;;;;22.63;45.38;99360.47;2018964;94;25862;-81
2022/05/21 08:48:32;;;;;;;1.12;0.40;;;;;;;22.59;45.36;99374.34;2031046;96;25887;-80
2022/05/21 08:52:48;;;;;;;;;;;;;;;;;;;;;
2022/05/21 08:56:25;;;;;;;5.78;0.30;;;;;;;22.43;45.09;99385.20;1929434;99;27136;-78
2022/05/21 09:00:14;;;;;;;1.72;0.30;;;;;;;22.38;45.12;99376.56;1889072;101;25917;-79
2022/05/21 09:08:20;;;;;;;0.88;0.30;;;;;;;23.71;44.13;99372.60;1796432;108;26000;-81
2022/05/21 09:12:52;;;;;;;2.00;0.40;;;;;;;24.26;43.20;99376.63;1848608;103;26044;-77
2022/05/21 09:20:31;;;;;;;3.80;0.30;;;;;;;24.15;42.03;99394.92;1832276;103;25920;-78
2022/05/21 09:24:14;;;;;;;5.92;0.93;;;;;;;24.02;41.67;99400.83;1862644;105;26094;-79
2022/05/21 09:27:47;;;;;;;4.58;0.20;;;;;;;23.98;41.95;99393.06;1888690;103;25921;-79
2022/05/21 09:31:32;;;;;;;1.95;0.60;;;;;;;24.07;41.93;99405.95;1905766;102;25875;-78
2022/05/21 09:35:39;;;;;;;6.17;0.40;;;;;;;24.15;41.66;99401.58;1912790;101;26186;-79
2022/05/21 09:39:17;;;;;;;2.75;0.40;;;;;;;24.41;41.75;99416.35;1962944;99;25914;-80
2022/05/21 09:46:40;;;;;;;3.90;0.37;;;;;;;24.32;41.77;99412.28;2048379;93;25837;-88
2022/05/21 09:50:47;;;;;;;3.40;0.42;;;;;;;24.26;41.91;99422.75;1910567;101;25805;-78
2022/05/21 09:54:52;;;;;;;3.55;0.50;;;;;;;24.18;41.90;99414.28;1962959;95;25848;-82
2022/05/21 09:58:31;;;;;;;0.75;0.50;;;;;;;24.12;42.03;99427.88;2019247;96;25307;-82
2022/05/21 10:02:27;;;;;;;1.22;0.47;;;;;;;24.02;42.17;99424.78;2036711;96;25829;-82
2022/05/21 10:06:10;;;;;;;3.27;0.47;;;;;;;23.98;42.26;99437.85;2034283;95;25881;-82
2022/05/21 10:13:54;;;;;;;1.95;0.30;;;;;;;23.88;42.42;99443.68;2039946;93;26175;-79
2022/05/21 10:17:40;;;;;;;6.60;0.65;;;;;;;23.76;42.38;99438.00;2103163;93;25861;-78
2022/05/21 10:21:59;;;;;;;2.72;0.57;;;;;;;23.74;42.40;99459.80;2111539;91;25897;-78
2022/05/21 10:26:03;;;;;;;2.17;0.55;;;;;;;23.64;42.54;99468.24;2091509;92;25912;-76
2022/05/21 10:29:58;;;;;;;5.85;0.78;;;;;;;23.50;42.78;99469.72;2039685;95;26320;-76
2022/05/21 10:33:59;;;;;;;7.90;0.60;;;;;;;23.48;43.45;99474.23;2059115;95;25814;-79
2022/05/21 10:38:11;;;;;;;4.72;0.50;;;;;;;23.42;43.45;99482.50;2042178;94;26144;-76
2022/05/21 10:42:32;;;;;;;1.75;0.50;;;;;;;23.46;43.44;99492.08;2018448;95;25763;-76
2022/05/21 10:46:59;;;;;;;4.03;0.50;;;;;;;23.40;43.15;99491.00;2043396;94;25779;-80
2022/05/21 10:50:50;;;;;;;3.35;0.50;;;;;;;23.39;43.04;99489.72;2142456;88;25924;-76
2022/05/21 10:55:08;;;;;;;7.15;0.60;;;;;;;23.32;42.83;99497.10;2202927;86;25944;-80
2022/05/21 10:59:13;;;;;;;7.22;0.50;;;;;;;23.22;42.70;99507.73;2206241;88;25942;-78
2022/05/21 11:03:30;;;;;;;1.12;0.50;;;;;;;23.24;42.41;99505.88;2205490;87;25840;-77
2022/05/21 11:07:33;;;;;;;3.98;0.60;;;;;;;23.68;42.05;99510.64;2283473;83;25864;-76
2022/05/21 11:11:49;;;;;;;;;;;;;;;;;;;;;
2022/05/21 11:16:03;;;;;;;1.92;0.70;;;;;;;24.20;40.71;99518.09;2262416;85;25706;-76
2022/05/21 11:19:34;;;;;;;3.05;0.50;;;;;;;24.63;40.06;99512.94;2268303;85;25870;-79
2022/05/21 11:23:17;;;;;;;3.87;0.60;;;;;;;24.96;39.58;99539.77;2263302;85;26130;-79
2022/05/21 11:26:48;;;;;;;6.50;0.90;;;;;;;25.05;39.15;99541.61;2252949;86;25668;-77
2022/05/21 11:30:45;;;;;;;;;;;;;;;;;;;;;
2022/05/21 11:38:58;;;;;;;0.85;0.40;;;;;;;24.53;37.86;99548.09;2102926;92;25676;-76
2022/05/21 11:42:57;;;;;;;9.55;0.50;;;;;;;24.23;37.92;99559.20;2124786;89;25904;-78
2022/05/21 11:46:42;;;;;;;7.12;0.45;;;;;;;23.98;37.91;99574.09;2124292;91;26214;-78
2022/05/21 11:50:19;;;;;;;3.10;0.53;;;;;;;23.76;38.00;99571.06;2123388;91;26120;-76
2022/05/21 11:53:49;;;;;;;3.67;0.50;;;;;;;23.71;37.97;99565.06;2134036;90;25786;-76
2022/05/21 11:57:39;;;;;;;2.72;0.42;;;;;;;23.87;37.76;99562.60;2139977;90;26302;-78
2022/05/21 12:01:16;;;;;;;7.45;0.50;;;;;;;23.97;37.63;99555.94;2115973;90;25763;-76
2022/05/21 12:04:52;;;;;;;3.87;0.57;;;;;;;23.96;37.46;99558.21;2109418;91;25732;-77
2022/05/21 12:08:35;;;;;;;3.15;0.40;;;;;;;23.77;37.54;99576.77;2114225;91;25868;-77
2022/05/21 12:12:34;;;;;;;5.80;0.57;;;;;;;23.51;37.86;99563.69;2121950;91;25965;-77
2022/05/21 12:16:29;;;;;;;8.23;0.40;;;;;;;23.33;37.91;99577.31;2060037;94;25916;-78
2022/05/21 12:20:00;;;;;;;8.38;0.40;;;;;;;23.23;38.03;99583.47;2053979;94;25908;-77
2022/05/21 12:23:37;;;;;;;0.55;0.30;;;;;;;23.18;38.15;99578.78;2052764;94;25815;-78
2022/05/21 12:27:14;;;;;;;1.07;0.72;;;;;;;23.25;37.87;99574.98;2037538;95;25828;-77
2022/05/21 12:30:43;;;;;;;7.95;0.62;;;;;;;23.47;37.74;99589.56;2077099;93;25758;-77
2022/05/21 12:34:49;;;;;;;4.53;0.30;;;;;;;23.65;37.59;99595.89;2073053;93;25898;-79
2022/05/21 12:38:31;;;;;;;2.10;0.30;;;;;;;23.73;37.35;99592.95;2137916;89;25987;-76
2022/05/21 12:42:01;;;;;;;2.55;0.50;;;;;;;23.80;37.26;99614.38;2174605;89;25812;-78
2022/05/21 12:45:52;;;;;;;3.10;0.50;;;;;;;23.84;37.03;99608.45;2197960;85;25865;-78
2022/05/21 12:49:34;;;;;;;2.65;0.60;;;;;;;23.89;36.77;99613.09;2297349;84;25757;-77
2022/05/21 12:53:04;;;;;;;4.10;0.93;;;;;;;23.91;36.51;99612.58;2327211;83;26329;-79
2022/05/21 12:56:37;;;;;;;2.77;0.80;;;;;;;23.92;36.49;99614.30;2324036;83;25650;-78
2022/05/21 13:00:08;;;;;;;1.35;0.50;;;;;;;23.84;36.31;99607.13;2295909;84;25912;-78
2022/05/21 13:03:41;;;;;;;0.90;0.82;;;;;;;23.57;36.44;99600.68;2327980;84;25800;-77
2022/05/21 13:07:15;;;;;;;1.27;0.30;;;;;;;23.27;36.32;99620.11;2330738;84;25762;-80
2022/05/21 13:10:55;;;;;;;2.52;0.30;;;;;;;23.12;36.55;99624.27;2329264;83;25696;-79
2022/05/21 13:14:27;;;;;;;9.90;0.98;;;;;;;23.14;36.71;99614.88;2330190;84;25616;-80
2022/05/21 13:18:20;;;;;;;4.30;0.60;;;;;;;23.36;36.78;99625.53;2332144;83;25716;-78
2022/05/21 13:22:13;;;;;;;3.80;0.40;;;;;;;23.69;36.33;99614.84;2324931;84;25650;-77
2022/05/21 13:25:43;;;;;;;0.95;0.53;;;;;;;23.96;35.90;99610.13;2330063;83;25811;-78
2022/05/21 13:29:21;;;;;;;3.72;0.68;;;;;;;23.84;35.66;99621.29;2326604;83;25669;-77
2022/05/21 13:36:35;;;;;;;0.95;0.60;;;;;;;23.32;36.29;99626.09;2543366;77;25514;-77
2022/05/21 13:40:25;;;;;;;1.52;0.80;;;;;;;23.26;36.45;99629.89;2481767;78;26416;-75
2022/05/21 13:43:57;;;;;;;1.62;0.70;;;;;;;23.49;36.41;99633.38;2512198;78;25756;-77
2022/05/21 13:47:32;;;;;;;1.20;0.40;;;;;;;23.62;35.99;99627.94;2480347;78;25651;-78
2022/05/21 13:51:02;;;;;;;1.57;0.30;;;;;;;23.73;35.75;99629.73;2511867;78;26281;-78
2022/05/21 13:54:34;;;;;;;2.12;0.35;;;;;;;23.99;35.68;99623.27;2513536;78;25562;-77
2022/05/21 14:02:45;;;;;;;3.25;0.47;;;;;;;24.22;34.97;99634.25;2374615;80;25822;-77
2022/05/21 14:06:18;;;;;;;4.50;0.50;;;;;;;24.32;34.86;99645.83;2299567;83;25819;-78
2022/05/21 14:09:59;;;;;;;3.40;0.40;;;;;;;24.43;34.71;99640.44;2300982;85;25763;-76
2022/05/21 14:13:39;;;;;;;3.22;0.95;;;;;;;24.50;34.40;99653.91;2262922;87;25805;-78
2022/05/21 14:17:35;;;;;;;1.17;0.40;;;;;;;24.72;34.32;99652.91;2262207;83;25674;-78
2022/05/21 14:21:25;;;;;;;1.27;0.40;;;;;;;24.73;33.93;99663.48;2259823;86;25713;-76
2022/05/21 14:25:12;;;;;;;2.45;0.40;;;;;;;24.56;33.69;99645.22;2262883;85;25683;-78
2022/05/21 14:29:02;;;;;;;1.20;0.40;;;;;;;24.47;33.77;99656.70;2278787;85;25724;-78
2022/05/21 14:32:45;;;;;;;1.00;0.40;;;;;;;24.35;33.81;99645.70;2188650;89;25757;-76
2022/05/21 14:36:40;;;;;;;3.42;0.50;;;;;;;24.24;33.88;99667.02;2200099;87;25755;-75
2022/05/21 14:40:04;;;;;;;4.10;0.70;;;;;;;24.10;33.84;99670.77;2180298;90;25691;-76
2022/05/21 14:44:05;;;;;;;3.85;0.40;;;;;;;23.94;34.07;99687.84;2261023;87;25759;-77
2022/05/21 14:55:15;;;;;;;;;;;;;;;;;;;;;
2022/05/21 14:58:30;;;;;;;2.62;0.53;;;;;;;23.46;34.64;99692.05;2229983;87;25688;-76
2022/05/21 15:01:53;;;;;;;3.72;0.53;;;;;;;23.61;34.71;99683.90;2247667;88;25768;-76
2022/05/21 15:05:17;;;;;;;6.22;0.62;;;;;;;23.58;34.66;99683.09;2247689;88;25762;-75
2022/05/21 15:09:12;;;;;;;1.42;0.80;;;;;;;23.49;34.71;99685.25;2247100;88;25719;-76
2022/05/21 15:12:33;;;;;;;3.90;0.70;;;;;;;23.36;34.85;99679.59;2248413;83;25671;-76
2022/05/21 15:16:08;;;;;;;2.12;0.57;;;;;;;23.41;35.14;99682.05;2226864;88;26325;-76
2022/05/21 15:19:38;;;;;;;7.33;1.00;;;;;;;23.41;35.17;99683.38;2177281;90;25808;-75
2022/05/21 15:23:07;;;;;;;3.77;0.50;;;;;;;23.37;35.27;99679.98;2177247;90;25812;-77
2022/05/21 15:26:29;;;;;;;7.97;0.70;;;;;;;23.35;35.38;99680.48;2179226;86;25856;-79
2022/05/21 15:29:50;;;;;;;4.22;0.72;;;;;;;23.39;35.54;99673.25;2245269;87;25786;-76
2022/05/21 15:33:13;;;;;;;1.75;0.62;;;;;;;23.31;35.57;99669.58;2252526;87;25704;-76
2022/05/21 15:36:47;;;;;;;8.15;0.68;;;;;;;23.23;35.64;99665.05;2252242;87;26391;-76
2022/05/21 15:40:13;;;;;;;4.83;0.60;;;;;;;23.14;35.83;99666.73;2245392;88;25830;-76
2022/05/21 15:43:57;;;;;;;2.77;0.80;;;;;;;22.93;35.93;99661.80;2246186;85;25813;-77
2022/05/21 15:47:21;;;;;;;8.18;0.65;;;;;;;22.77;36.24;99663.66;2185077;87;25710;-76
2022/05/21 15:50:47;;;;;;;2.40;0.60;;;;;;;22.68;36.52;99664.03;2155841;91;25920;-76
2022/05/21 15:54:43;;;;;;;2.52;0.68;;;;;;;22.64;36.66;99662.39;2155937;91;25696;-76
2022/05/21 15:58:14;;;;;;;1.98;0.72;;;;;;;22.46;36.77;99673.23;2223676;87;25713;-76
2022/05/21 16:01:46;;;;;;;3.37;0.60;;;;;;;22.36;37.03;99658.09;2224969;88;25761;-77
2022/05/21 16:05:20;;;;;;;1.85;0.50;;;;;;;22.29;37.18;99664.55;2224352;87;25750;-76
2022/05/21 16:08:49;;;;;;;1.65;0.78;;;;;;;22.27;37.46;99664.20;2224952;88;25238;-77
2022/05/21 16:12:20;;;;;;;4.95;0.47;;;;;;;22.24;37.48;99657.66;2224555;88;25840;-75
2022/05/21 16:15:52;;;;;;;2.15;0.80;;;;;;;22.23;37.52;99660.78;2238540;84;25798;-77
2022/05/21 16:19:31;;;;;;;3.65;0.40;;;;;;;22.14;37.68;99648.69;2347444;84;25706;-77
2022/05/21 16:23:14;;;;;;;;;;;;;;;22.00;37.68;99655.39;2189436;90;25771;-76
2022/05/21 16:30:32;;;;;;;2.30;0.80;;;;;;;21.74;38.12;99649.67;2187971;89;25768;-76
2022/05/21 16:34:04;;;;;;;1.93;0.63;;;;;;;21.66;38.35;99638.83;2188250;90;25889;-77
2022/05/21 16:37:45;;;;;;;0.82;0.50;;;;;;;21.62;38.53;99627.06;2190258;89;26501;-75
2022/05/21 16:41:15;;;;;;;1.02;0.55;;;;;;;21.48;38.82;99634.62;2189642;90;26474;-76
2022/05/21 16:44:50;;;;;;;1.57;0.80;;;;;;;21.36;38.93;99642.06;2157210;91;25789;-77
2022/05/21 16:48:14;;;;;;;0.85;0.50;;;;;;;21.39;39.22;99635.77;2156820;91;25856;-77
2022/05/21 16:51:45;;;;;;;1.75;0.55;;;;;;;21.36;39.30;99627.92;2157002;91;25749;-77
2022/05/21 16:55:39;;;;;;;3.50;0.62;;;;;;;21.30;39.46;99617.50;2136932;91;25746;-77
2022/05/21 16:59:09;;;;;;;1.52;0.65;;;;;;;21.19;39.66;99630.65;2123200;93;25727;-76
2022/05/21 17:02:37;;;;;;;1.95;0.62;;;;;;;21.15;39.88;99632.96;2162265;90;25697;-77
2022/05/21 17:06:03;;;;;;;2.00;0.93;;;;;;;21.08;40.14;99615.52;2171648;91;25801;-76
2022/05/21 17:09:39;;;;;;;1.17;0.80;;;;;;;21.00;40.24;99610.94;2172708;91;25776;-77
2022/05/21 17:13:07;;;;;;;5.05;1.00;;;;;;;20.86;40.48;99604.75;2172246;91;25949;-77
2022/05/21 17:16:57;;;;;;;;;;;;;;;;;;;;;
2022/05/21 17:20:17;;;;;;;2.80;0.70;;;;;;;20.63;40.99;99597.95;2199059;88;25760;-80
2022/05/21 17:23:44;;;;;;;;;;;;;;;20.51;41.35;99585.47;2193001;89;25815;-76
2022/05/21 17:30:57;;;;;;;3.98;0.78;;;;;;;20.34;41.85;99596.12;2210408;89;25766;-78
2022/05/21 17:34:52;;;;;;;2.02;0.70;;;;;;;20.22;42.16;99595.57;2136001;91;25965;-77
2022/05/21 17:38:30;;;;;;;2.40;1.00;;;;;;;20.18;42.31;99608.91;2060801;94;25843;-76
2022/05/21 17:42:21;;;;;;;;;;;;;;;;;;;;;
2022/05/21 17:45:38;;;;;;;4.05;1.20;;;;;;;20.30;42.79;99600.64;2061097;95;25919;-80
2022/05/21 17:49:02;;;;;;;4.55;0.78;;;;;;;20.50;42.92;99604.92;2070420;95;25887;-79
2022/05/21 17:52:29;;;;;;;3.87;0.95;;;;;;;20.77;42.90;99597.07;2103277;93;25773;-79
2022/05/21 17:55:57;;;;;;;4.17;0.80;;;;;;;20.90;42.85;99596.24;2131150;92;25726;-79
2022/05/21 17:59:26;;;;;;;1.45;0.72;;;;;;;21.16;43.38;99597.61;2112978;92;25758;-79
2022/05/21 18:02:54;;;;;;;3.62;0.65;;;;;;;21.34;43.06;99604.13;2130959;91;26103;-82
2022/05/21 18:06:38;;;;;;;;;;;;;;;;;;;;;
2022/05/21 18:10:02;;;;;;;2.17;0.68;;;;;;;21.42;42.88;99605.19;2146090;88;25885;-80
2022/05/21 18:13:34;;;;;;;1.87;0.60;;;;;;;21.57;43.04;99613.97;2211166;85;25797;-78
2022/05/21 18:21:28;;;;;;;1.55;0.60;;;;;;;21.83;43.50;99613.52;1978260;98;25801;-79
2022/05/21 18:25:03;;;;;;;1.55;0.75;;;;;;;21.91;43.35;99612.34;1964429;99;25844;-83
2022/05/21 18:28:19;;;;;;;1.82;0.90;;;;;;;21.94;42.85;99616.69;2025249;97;25405;-81
2022/05/21 18:31:57;;;;;;;2.17;0.75;;;;;;;21.91;43.41;99622.09;2026935;96;25774;-80
2022/05/21 18:35:54;;;;;;;1.52;0.55;;;;;;;22.09;43.20;99614.80;2029591;95;25991;-79
2022/05/21 18:39:31;;;;;;;1.02;0.62;;;;;;;21.99;42.90;99620.48;2040440;95;25799;-83
2022/05/21 18:43:06;;;;;;;2.72;0.75;;;;;;;22.08;42.93;99632.11;2042735;92;25792;-81
2022/05/21 18:46:49;;;;;;;5.47;0.70;;;;;;;22.13;42.61;99619.06;2033776;95;25786;-79
2022/05/21 18:50:29;;;;;;;2.52;0.90;;;;;;;22.20;42.58;99620.20;1988371;95;25900;-78
2022/05/21 18:53:58;;;;;;;2.20;0.60;;;;;;;22.27;42.27;99625.23;1988246;99;25788;-79
2022/05/21 18:57:41;;;;;;;5.92;0.65;;;;;;;22.32;42.23;99627.27;2001037;96;25844;-79